Time;durP1;ratioP1;P1;durP2;ratioP2;P2;SDS_P1;SDS_P2;PMS_P1;PMS_P2;Temp;Humidity;BMP_temperature;BMP_pressure;BME280_temperature;BME280_humidity;BME280_pressure;Samples;Min_cycle;Max_cycle;Signal;HPM_P1;HPM_P2
2023/07/06 00:02:03;;;;;;;;;1.00;1.00;;;;;13.91;70.35;99876.03;5032967;28;9550;-57
2023/07/06 00:04:31;;;;;;;;;2.50;2.50;;;;;13.93;70.57;99877.56;5023255;28;8841;-58
2023/07/06 00:06:58;;;;;;;;;3.00;3.00;;;;;13.95;70.35;99877.41;5013283;28;8823;-57
2023/07/06 00:09:26;;;;;;;;;1.00;1.00;;;;;13.96;70.35;99885.31;5014520;28;8825;-59
2023/07/06 00:11:55;;;;;;;;;0.75;0.75;;;;;13.98;70.47;99880.63;5013843;28;8830;-59
2023/07/06 00:14:24;;;;;;;;;0.75;0.75;;;;;13.99;69.73;99881.50;5024696;28;8846;-58
2023/07/06 00:16:52;;;;;;;;;1.50;1.50;;;;;14.03;70.46;99888.25;5031111;28;8892;-59
2023/07/06 00:19:19;;;;;;;;;3.25;3.00;;;;;14.05;69.91;99879.06;5015753;28;8908;-59
2023/07/06 00:21:49;;;;;;;;;4.00;3.75;;;;;14.07;70.55;99882.47;5032806;28;8823;-59
2023/07/06 00:24:17;;;;;;;;;2.00;2.00;;;;;14.10;70.64;99878.63;5024737;28;8831;-58
2023/07/06 00:26:45;;;;;;;;;3.75;0.75;;;;;14.12;69.94;99882.84;5016226;28;8989;-59
2023/07/06 00:29:15;;;;;;;;;3.00;3.00;;;;;14.15;70.18;99887.94;5025554;28;9464;-58
2023/07/06 00:31:51;;;;;;;;;3.00;2.50;;;;;14.17;70.20;99885.09;5028836;28;9482;-58
2023/07/06 00:34:19;;;;;;;;;1.50;1.50;;;;;14.18;69.96;99884.16;5036176;28;8824;-59
2023/07/06 00:36:47;;;;;;;;;3.75;3.75;;;;;14.19;70.28;99886.66;5021203;28;8807;-59
2023/07/06 00:39:15;;;;;;;;;3.00;3.00;;;;;14.20;70.56;99879.50;5028897;28;9482;-59
2023/07/06 00:41:43;;;;;;;;;1.00;1.00;;;;;14.22;70.79;99885.53;5034096;28;8832;-59
2023/07/06 00:44:11;;;;;;;;;2.50;2.50;;;;;14.23;70.61;99881.88;5034234;28;8831;-59
2023/07/06 00:46:39;;;;;;;;;3.00;3.00;;;;;14.22;70.30;99881.03;5035859;28;8809;-59
2023/07/06 00:49:07;;;;;;;;;3.00;3.00;;;;;14.23;70.41;99888.09;5023665;28;8850;-57
2023/07/06 00:51:35;;;;;;;;;1.00;1.00;;;;;14.23;70.13;99884.53;5015261;28;9804;-59
2023/07/06 00:54:03;;;;;;;;;2.50;2.50;;;;;14.21;70.31;99882.00;5016072;28;9531;-60
2023/07/06 00:56:31;;;;;;;;;3.00;3.00;;;;;14.19;70.42;99892.03;5024044;28;8834;-59
2023/07/06 00:59:02;;;;;;;;;3.75;3.75;;;;;14.17;70.84;99879.72;5025347;28;9629;-58
2023/07/06 01:01:30;;;;;;;;;4.75;3.50;;;;;14.15;70.87;99884.41;5015213;28;8838;-58
2023/07/06 01:03:58;;;;;;;;;1.50;1.00;;;;;14.11;70.78;99880.34;5015202;28;8840;-59
2023/07/06 01:06:25;;;;;;;;;3.00;3.00;;;;;14.07;70.91;99886.97;5022811;28;8816;-58
2023/07/06 01:08:53;;;;;;;;;3.00;3.00;;;;;13.99;71.35;99885.03;5025947;28;9496;-59
2023/07/06 01:11:21;;;;;;;;;3.00;3.00;;;;;13.96;71.34;99889.81;5020585;28;8832;-59
2023/07/06 01:13:49;;;;;;;;;3.00;1.00;;;;;13.92;71.81;99893.78;5035043;28;8873;-59
2023/07/06 01:16:18;;;;;;;;;3.50;3.00;;;;;13.87;71.83;99891.53;5022479;28;9483;-57
2023/07/06 01:18:46;;;;;;;;;3.25;2.00;;;;;13.84;71.79;99890.97;5035566;28;8856;-59
2023/07/06 01:21:14;;;;;;;;;4.00;3.50;;;;;13.79;72.12;99888.72;5034724;28;8839;-59
2023/07/06 01:23:42;;;;;;;;;3.00;3.00;;;;;13.74;72.08;99890.16;5035085;28;8828;-59
2023/07/06 01:26:09;;;;;;;;;2.50;2.00;;;;;13.72;72.15;99886.75;5034812;28;8832;-59
2023/07/06 01:28:37;;;;;;;;;6.25;6.25;;;;;13.68;72.03;99888.03;5034077;28;8836;-59
2023/07/06 01:31:05;;;;;;;;;2.50;2.50;;;;;13.65;72.15;99888.31;5035292;28;8824;-59
2023/07/06 01:33:33;;;;;;;;;3.00;2.00;;;;;13.62;72.55;99880.56;5034044;28;8924;-60
2023/07/06 01:36:01;;;;;;;;;3.00;2.00;;;;;13.59;72.67;99884.38;5035466;28;8862;-60
2023/07/06 01:38:29;;;;;;;;;4.00;4.00;;;;;13.57;72.03;99885.50;5034918;28;8846;-59
2023/07/06 01:40:59;;;;;;;;;4.00;3.00;;;;;13.55;72.35;99892.84;5035030;28;9501;-59
2023/07/06 01:43:27;;;;;;;;;3.50;3.50;;;;;13.51;72.53;99894.13;5034725;28;8835;-60
2023/07/06 01:45:55;;;;;;;;;3.50;3.25;;;;;13.50;72.73;99898.63;5034801;28;8855;-60
2023/07/06 01:48:24;;;;;;;;;3.00;3.00;;;;;13.48;72.16;99881.88;5034283;28;8858;-60
2023/07/06 01:50:51;;;;;;;;;3.00;3.00;;;;;13.48;72.40;99895.25;5024311;28;8810;-60
2023/07/06 01:53:19;;;;;;;;;4.00;3.00;;;;;13.47;72.13;99903.41;5014686;28;8953;-59
2023/07/06 01:55:46;;;;;;;;;4.00;3.00;;;;;13.44;72.26;99893.00;5014210;28;8874;-60
2023/07/06 01:58:15;;;;;;;;;1.00;1.00;;;;;13.44;72.31;99898.34;5021648;28;8842;-59
2023/07/06 02:00:44;;;;;;;;;3.25;2.50;;;;;13.43;72.23;99897.47;5034638;28;8824;-59
2023/07/06 02:03:12;;;;;;;;;1.00;1.00;;;;;13.45;71.95;99897.34;5034725;28;9878;-59
2023/07/06 02:05:39;;;;;;;;;4.00;3.75;;;;;13.45;71.77;99895.50;5034382;28;8929;-59
2023/07/06 02:08:07;;;;;;;;;3.50;3.25;;;;;13.45;72.33;99897.34;5032453;28;8834;-59
2023/07/06 02:10:35;;;;;;;;;1.00;1.00;;;;;13.43;72.33;99899.34;5016845;28;8865;-59
2023/07/06 02:13:03;;;;;;;;;2.50;2.50;;;;;13.42;72.19;99889.59;5013966;28;8833;-60
2023/07/06 02:15:31;;;;;;;;;2.00;1.00;;;;;13.43;71.99;99893.97;5017903;28;8824;-60
2023/07/06 02:18:02;;;;;;;;;3.75;3.75;;;;;13.42;72.12;99889.59;5034373;28;8998;-60
2023/07/06 02:20:29;;;;;;;;;1.00;1.00;;;;;13.42;72.25;99894.94;5015737;28;8839;-60
2023/07/06 02:22:57;;;;;;;;;3.00;3.00;;;;;13.44;73.01;99888.47;5014948;28;8814;-59
2023/07/06 02:25:25;;;;;;;;;0.50;0.00;;;;;13.44;72.73;99895.66;5015232;28;9504;-60
2023/07/06 02:27:53;;;;;;;;;1.00;0.50;;;;;13.44;72.28;99895.66;5014365;28;8846;-59
2023/07/06 02:30:20;;;;;;;;;8.00;3.50;;;;;13.43;72.59;99899.34;5014596;28;8826;-59
2023/07/06 02:32:48;;;;;;;;;1.00;1.00;;;;;13.43;72.83;99891.31;5014535;28;8852;-59
2023/07/06 02:35:17;;;;;;;;;4.00;4.00;;;;;13.44;72.88;99898.34;5014178;28;8899;-59
2023/07/06 02:37:45;;;;;;;;;2.50;2.50;;;;;13.43;72.28;99892.13;5014688;28;9659;-59
2023/07/06 02:40:12;;;;;;;;;3.50;1.50;;;;;13.43;72.31;99886.78;5030654;28;8848;-59
2023/07/06 02:42:41;;;;;;;;;3.00;3.00;;;;;13.44;72.21;99895.66;5032549;28;9458;-59
2023/07/06 02:45:09;;;;;;;;;4.00;3.00;;;;;13.45;72.48;99894.69;5033528;28;8816;-57
2023/07/06 02:47:37;;;;;;;;;3.25;3.25;;;;;13.44;72.21;99888.47;5033672;28;8839;-58
2023/07/06 02:50:07;;;;;;;;;3.25;3.00;;;;;13.44;72.84;99901.84;5031792;28;8812;-57
2023/07/06 02:52:34;;;;;;;;;1.50;1.50;;;;;13.44;72.64;99898.34;5033583;28;8840;-59
2023/07/06 02:55:02;;;;;;;;;4.50;4.00;;;;;13.44;72.34;99898.34;5017619;28;8841;-59
2023/07/06 02:57:31;;;;;;;;;3.00;3.00;;;;;13.42;72.80;99894.94;5014330;28;8840;-58
2023/07/06 02:59:59;;;;;;;;;3.25;2.75;;;;;13.41;72.60;99898.59;5024848;28;8947;-59
2023/07/06 03:02:27;;;;;;;;;4.00;3.00;;;;;13.39;72.30;99900.59;5033785;28;8866;-57
2023/07/06 03:04:56;;;;;;;;;4.00;3.50;;;;;13.36;72.04;99898.22;5032719;28;8828;-57
2023/07/06 03:07:25;;;;;;;;;6.00;5.50;;;;;13.34;72.52;99900.16;5031246;28;8835;-57
2023/07/06 03:09:53;;;;;;;;;2.50;2.50;;;;;13.33;72.61;99902.00;5019901;28;8830;-59
2023/07/06 03:12:23;;;;;;;;;3.00;3.00;;;;;13.33;72.36;99903.81;5013636;28;8856;-60
2023/07/06 03:14:51;;;;;;;;;3.00;3.00;;;;;13.33;72.56;99903.81;5013799;28;8830;-58
2023/07/06 03:17:19;;;;;;;;;6.50;4.50;;;;;13.33;72.11;99910.03;5013672;28;8830;-60
2023/07/06 03:19:47;;;;;;;;;1.00;1.00;;;;;13.33;72.39;99901.13;5022907;28;8852;-58
2023/07/06 03:22:17;;;;;;;;;4.00;3.50;;;;;13.33;72.25;99912.69;5032175;28;8820;-57
2023/07/06 03:24:45;;;;;;;;;3.00;3.00;;;;;13.34;72.37;99910.84;5033357;28;8912;-59
2023/07/06 03:27:13;;;;;;;;;3.00;3.00;;;;;13.35;72.17;99915.25;5033212;28;8844;-59
2023/07/06 03:29:41;;;;;;;;;3.00;3.00;;;;;13.36;72.02;99912.41;5033748;28;8816;-57
2023/07/06 03:32:09;;;;;;;;;3.50;3.50;;;;;13.36;71.92;99911.56;5033656;28;8820;-57
2023/07/06 03:34:37;;;;;;;;;4.75;4.75;;;;;13.37;71.71;99907.91;5033535;28;8828;-59
2023/07/06 03:37:05;;;;;;;;;3.00;3.00;;;;;13.37;72.21;99908.75;5033530;28;8820;-60
2023/07/06 03:39:33;;;;;;;;;2.25;2.25;;;;;13.36;71.94;99912.41;5033592;28;8843;-59
2023/07/06 03:42:02;;;;;;;;;5.50;5.50;;;;;13.37;72.11;99915.94;5033436;28;8824;-58
2023/07/06 03:44:29;;;;;;;;;4.00;4.00;;;;;13.36;72.20;99912.41;5033458;28;8824;-58
2023/07/06 03:46:58;;;;;;;;;4.50;4.50;;;;;13.37;72.20;99919.44;5033249;28;8827;-58
2023/07/06 03:49:25;;;;;;;;;5.00;4.00;;;;;13.36;72.24;99912.41;5033031;28;8855;-58
2023/07/06 03:51:53;;;;;;;;;4.00;3.50;;;;;13.35;72.51;99915.25;5033034;28;8920;-57
2023/07/06 03:54:21;;;;;;;;;2.25;2.00;;;;;13.35;71.91;99917.91;5032886;28;8843;-59
2023/07/06 03:56:50;;;;;;;;;1.00;0.25;;;;;13.34;72.03;99918.88;5032893;28;8917;-57
2023/07/06 03:59:18;;;;;;;;;3.00;3.00;;;;;13.34;71.75;99918.88;5027752;28;8808;-59
2023/07/06 04:01:46;;;;;;;;;3.50;3.50;;;;;13.34;72.17;99924.22;5012925;28;8838;-60
2023/07/06 04:04:18;;;;;;;;;4.00;4.00;;;;;13.36;72.30;99930.31;5012990;28;8826;-59
2023/07/06 04:06:45;;;;;;;;;4.00;4.00;;;;;13.39;72.09;99935.38;5013086;28;8848;-58
2023/07/06 04:09:13;;;;;;;;;3.75;3.00;;;;;13.43;71.38;99934.13;5013659;28;8842;-58
2023/07/06 04:11:41;;;;;;;;;6.75;5.50;;;;;13.46;71.83;99933.81;5012419;28;8978;-60
2023/07/06 04:14:09;;;;;;;;;4.00;4.00;;;;;13.49;71.34;99930.84;5012748;28;8811;-59
2023/07/06 04:16:40;;;;;;;;;3.00;3.00;;;;;13.53;71.38;99934.94;5013032;28;8852;-58
2023/07/06 04:19:08;;;;;;;;;3.50;3.50;;;;;13.57;71.71;99931.84;5020012;28;8871;-59
2023/07/06 04:21:36;;;;;;;;;3.00;3.00;;;;;13.61;71.25;99933.28;5032834;28;9116;-59
2023/07/06 04:24:04;;;;;;;;;3.00;3.00;;;;;13.66;71.83;99925.63;5030842;28;8989;-57
2023/07/06 04:26:32;;;;;;;;;2.50;2.00;;;;;13.71;71.93;99931.41;5032673;28;8859;-58
2023/07/06 04:29:00;;;;;;;;;2.00;1.00;;;;;13.76;71.30;99925.63;5026051;28;8815;-57
2023/07/06 04:31:27;;;;;;;;;5.50;4.50;;;;;13.81;71.45;99924.22;5012175;28;8842;-59
2023/07/06 04:33:55;;;;;;;;;3.25;3.25;;;;;13.86;71.36;99926.47;5017986;28;8828;-57
2023/07/06 04:36:23;;;;;;;;;3.00;3.00;;;;;13.91;70.97;99919.72;5032495;28;8812;-59
2023/07/06 04:38:51;;;;;;;;;3.50;3.00;;;;;13.97;71.15;99932.50;5030729;28;8860;-57
2023/07/06 04:41:19;;;;;;;;;4.00;4.00;;;;;14.03;70.72;99928.44;5032766;28;9501;-59
2023/07/06 04:43:47;;;;;;;;;1.50;1.50;;;;;14.09;70.79;99925.16;5028085;28;8826;-59
2023/07/06 04:46:15;;;;;;;;;3.00;3.00;;;;;14.14;70.69;99925.56;5012447;28;8852;-59
2023/07/06 04:48:44;;;;;;;;;3.00;3.00;;;;;14.20;70.27;99928.53;5015172;28;9517;-60
2023/07/06 04:51:12;;;;;;;;;4.00;3.75;;;;;14.28;70.12;99936.69;5031677;28;9533;-59
2023/07/06 04:53:40;;;;;;;;;0.00;0.00;;;;;14.32;70.45;99932.75;5030778;28;8820;-59
2023/07/06 04:56:07;;;;;;;;;3.50;2.50;;;;;14.40;70.23;99937.34;5031082;28;8942;-59
2023/07/06 04:58:36;;;;;;;;;4.50;4.00;;;;;14.47;69.69;99938.47;5029639;28;8850;-58
2023/07/06 05:01:06;;;;;;;;;2.50;2.50;;;;;14.53;70.19;99932.53;5013360;28;8833;-59
2023/07/06 05:03:34;;;;;;;;;4.50;4.00;;;;;14.60;70.02;99941.66;5013203;28;8891;-59
2023/07/06 05:06:02;;;;;;;;;3.00;3.00;;;;;14.68;69.05;99944.44;5015728;28;8869;-59
2023/07/06 05:08:29;;;;;;;;;3.75;3.00;;;;;14.75;69.34;99937.50;5016918;28;8826;-60
2023/07/06 05:10:57;;;;;;;;;3.00;2.50;;;;;14.81;69.11;99942.28;5032180;28;8820;-60
2023/07/06 05:13:24;;;;;;;;;1.50;1.50;;;;;14.87;69.47;99941.69;5035284;28;8958;-59
2023/07/06 05:15:52;;;;;;;;;5.00;5.00;;;;;14.92;69.43;99945.59;5035303;28;8967;-58
2023/07/06 05:18:21;;;;;;;;;6.00;5.50;;;;;14.99;69.07;99945.84;5033501;28;8994;-59
2023/07/06 05:20:49;;;;;;;;;3.00;3.00;;;;;15.04;69.59;99947.09;5030660;28;8912;-59
2023/07/06 05:23:18;;;;;;;;;3.25;3.25;;;;;15.10;69.36;99937.59;5034658;28;8843;-59
2023/07/06 05:25:46;;;;;;;;;2.50;2.50;;;;;15.16;69.03;99937.84;5034582;28;8830;-58
2023/07/06 05:28:19;;;;;;;;;5.00;3.25;;;;;15.24;68.98;99942.47;5034953;28;8943;-58
2023/07/06 05:30:48;;;;;;;;;7.00;5.00;;;;;15.29;68.97;99937.47;5035117;28;9552;-59
2023/07/06 05:33:15;;;;;;;;;3.00;3.00;;;;;15.34;68.66;99929.84;5034876;28;8831;-60
2023/07/06 05:35:43;;;;;;;;;3.50;3.50;;;;;15.40;68.96;99935.44;5034702;28;8844;-58
2023/07/06 05:38:11;;;;;;;;;2.00;2.00;;;;;15.47;68.84;99943.72;5034729;28;8812;-60
2023/07/06 05:40:38;;;;;;;;;4.50;3.50;;;;;15.53;68.70;99949.31;5035161;28;8831;-60
2023/07/06 05:43:08;;;;;;;;;3.00;3.00;;;;;15.62;68.51;99951.09;5034959;28;8840;-59
2023/07/06 05:45:36;;;;;;;;;3.00;3.00;;;;;15.70;68.15;99947.66;5034447;28;8828;-58
2023/07/06 05:48:04;;;;;;;;;1.00;1.00;;;;;15.77;68.13;99946.84;5034462;28;8852;-60
2023/07/06 05:50:31;;;;;;;;;0.25;0.25;;;;;15.85;67.82;99938.88;5034663;28;8866;-59
2023/07/06 05:53:01;;;;;;;;;4.00;4.00;;;;;15.92;68.24;99947.16;5034044;28;8836;-59
2023/07/06 05:55:30;;;;;;;;;1.50;1.50;;;;;15.97;68.54;99945.69;5033121;28;8970;-58
2023/07/06 05:57:58;;;;;;;;;3.50;3.25;;;;;16.06;67.90;99951.94;5033742;28;9493;-59
2023/07/06 06:00:26;;;;;;;;;4.75;4.25;;;;;16.13;67.60;99947.63;5033445;28;8970;-59
2023/07/06 06:02:53;;;;;;;;;3.00;3.00;;;;;16.19;67.36;99953.25;5033259;28;8840;-59
2023/07/06 06:05:22;;;;;;;;;3.75;3.75;;;;;16.27;67.29;99961.38;5033249;28;8824;-59
2023/07/06 06:07:50;;;;;;;;;5.20;3.00;;;;;16.34;66.98;99971.31;5024739;28;8814;-58
2023/07/06 06:10:18;;;;;;;;;1.40;1.40;;;;;16.39;67.11;99966.34;5015099;28;8870;-60
2023/07/06 06:12:46;;;;;;;;;2.40;0.60;;;;;16.46;66.58;99966.56;5018613;28;8831;-59
2023/07/06 06:15:14;;;;;;;;;3.00;3.00;;;;;16.54;66.47;99980.03;5032977;28;8840;-59
2023/07/06 06:17:44;;;;;;;;;1.00;1.00;;;;;16.59;66.51;99969.66;5033627;28;8824;-60
2023/07/06 06:20:12;;;;;;;;;3.00;3.00;;;;;16.65;66.21;99977.09;5020132;28;8960;-59
2023/07/06 06:22:41;;;;;;;;;1.00;1.00;;;;;16.72;66.13;99981.66;5013475;28;8836;-59
2023/07/06 06:25:08;;;;;;;;;3.00;2.60;;;;;16.77;65.94;99984.72;5022242;28;8846;-60
2023/07/06 06:27:37;;;;;;;;;1.00;1.00;;;;;16.81;65.83;99985.25;5033098;28;8836;-60
2023/07/06 06:30:05;;;;;;;;;1.40;1.40;;;;;16.87;65.81;99990.81;5021190;28;8842;-57
2023/07/06 06:32:34;;;;;;;;;2.60;1.00;;;;;16.97;66.10;99991.56;5014953;28;8834;-59
2023/07/06 06:35:03;;;;;;;;;1.80;1.80;;;;;17.04;65.79;99995.28;5015282;28;8947;-60
2023/07/06 06:37:31;;;;;;;;;2.20;2.20;;;;;17.13;65.65;99998.84;5013670;28;8845;-59
2023/07/06 06:39:59;;;;;;;;;1.40;1.40;;;;;17.18;65.45;100001.91;5024562;28;8871;-58
2023/07/06 06:42:28;;;;;;;;;1.00;1.00;;;;;17.23;64.99;100013.03;5033862;28;8855;-60
2023/07/06 06:44:57;;;;;;;;;3.00;2.60;;;;;17.24;65.32;100007.47;5014660;28;8961;-59
2023/07/06 06:47:25;;;;;;;;;3.00;3.00;;;;;17.31;65.36;100011.19;5013437;28;8885;-59
2023/07/06 06:49:54;;;;;;;;;3.00;3.00;;;;;17.38;65.15;100009.56;5022713;28;8917;-60
2023/07/06 06:52:22;;;;;;;;;1.00;1.00;;;;;17.45;64.83;100009.78;5032400;28;9001;-56
2023/07/06 06:54:51;;;;;;;;;1.00;1.00;;;;;17.55;64.95;100018.56;5031554;28;8840;-57
2023/07/06 06:57:20;;;;;;;;;3.00;3.00;;;;;17.59;64.08;100009.13;5016554;28;8830;-58
2023/07/06 06:59:48;;;;;;;;;3.00;1.00;;;;;17.68;64.12;100011.69;5021649;28;8836;-60
2023/07/06 07:02:16;;;;;;;;;2.20;1.40;;;;;17.76;64.27;100011.69;5031844;28;9652;-58
2023/07/06 07:04:44;;;;;;;;;1.00;1.00;;;;;17.83;63.82;100006.50;5032073;28;8818;-60
2023/07/06 07:07:12;;;;;;;;;3.00;1.00;;;;;17.94;63.95;100009.72;5032832;28;8839;-60
2023/07/06 07:09:41;;;;;;;;;2.20;1.00;;;;;18.02;63.24;100017.81;5022974;28;8829;-60
2023/07/06 07:12:09;;;;;;;;;3.40;3.00;;;;;18.06;63.72;100011.06;5013145;28;8822;-59
2023/07/06 07:14:37;;;;;;;;;2.20;2.20;;;;;18.11;63.60;100022.19;5014625;28;8912;-59
2023/07/06 07:17:10;;;;;;;;;1.00;1.00;;;;;18.16;63.43;100014.44;5029183;28;8850;-59
2023/07/06 07:19:38;;;;;;;;;3.00;3.00;;;;;18.24;63.16;100016.28;5020373;28;8863;-60
2023/07/06 07:22:06;;;;;;;;;3.00;2.20;;;;;18.31;62.99;100011.94;5033480;28;8844;-58
2023/07/06 07:24:36;;;;;;;;;2.60;2.60;;;;;18.43;62.59;100015.97;5032544;28;9490;-59
2023/07/06 07:27:03;;;;;;;;;3.00;2.60;;;;;18.46;62.32;100018.31;5032177;28;8828;-59
2023/07/06 07:29:32;;;;;;;;;1.80;1.00;;;;;18.55;62.60;100018.16;5032899;28;9621;-60
2023/07/06 07:32:02;;;;;;;;;1.00;1.00;;;;;18.63;62.05;100028.06;5032209;28;8940;-60
2023/07/06 07:34:30;;;;;;;;;1.80;1.00;;;;;18.72;61.99;100025.19;5032632;28;8863;-60
2023/07/06 07:36:58;;;;;;;;;1.40;1.40;;;;;18.80;61.65;100019.78;5032418;28;8808;-59
2023/07/06 07:39:26;;;;;;;;;1.00;1.00;;;;;18.93;61.43;100017.41;5032664;28;8874;-59
2023/07/06 07:41:54;;;;;;;;;1.00;1.00;;;;;19.05;61.71;100024.09;5032209;28;8859;-58
2023/07/06 07:44:23;;;;;;;;;1.00;0.40;;;;;19.10;60.88;100021.72;5031903;28;9533;-59
2023/07/06 07:46:51;;;;;;;;;0.00;0.00;;;;;19.16;61.05;100023.72;5031186;28;8840;-59
2023/07/06 07:49:19;;;;;;;;;1.00;1.00;;;;;19.22;61.28;100030.31;5031196;28;8970;-59
2023/07/06 07:51:47;;;;;;;;;1.00;1.00;;;;;19.25;60.67;100024.56;5031504;28;9497;-58
2023/07/06 07:54:15;;;;;;;;;1.80;1.00;;;;;19.32;60.81;100028.25;5031722;28;8828;-60
2023/07/06 07:56:43;;;;;;;;;1.00;0.80;;;;;19.29;60.16;100032.16;5031730;28;8843;-58
2023/07/06 07:59:11;;;;;;;;;3.80;1.00;;;;;19.31;60.65;100024.72;5031421;28;8852;-58
2023/07/06 08:01:45;;;;;;;;;0.00;0.00;;;;;19.31;60.50;100027.41;5031566;28;9470;-57
2023/07/06 08:04:14;;;;;;;;;0.60;0.60;;;;;19.34;59.84;100018.13;5030794;28;8828;-60
2023/07/06 08:06:42;;;;;;;;;1.00;1.00;;;;;19.42;60.12;100012.69;5032447;28;8824;-60
2023/07/06 08:09:10;;;;;;;;;0.00;0.00;;;;;19.51;60.16;100008.91;5031021;28;8854;-60
2023/07/06 08:11:39;;;;;;;;;1.00;1.00;;;;;19.60;59.60;100006.00;5032075;28;8816;-60
2023/07/06 08:14:08;;;;;;;;;0.60;0.00;;;;;19.67;59.35;100015.09;5031182;28;8848;-58
2023/07/06 08:16:36;;;;;;;;;1.00;1.00;;;;;19.71;59.07;100010.97;5013104;28;8853;-61
2023/07/06 08:19:05;;;;;;;;;0.00;0.00;;;;;19.77;58.90;100014.81;5018945;28;8852;-58
2023/07/06 08:21:53;;;;;;;;;1.00;1.00;;;;;19.85;58.44;100007.53;5011756;28;8886;-59
2023/07/06 08:24:37;;;;;;;;;0.00;0.00;;;;;19.90;58.18;100018.66;5020993;28;8851;-60
2023/07/06 08:27:05;;;;;;;;;0.20;0.20;;;;;19.99;57.74;100031.09;5030309;28;8816;-59
2023/07/06 08:29:33;;;;;;;;;3.00;1.00;;;;;20.07;57.74;100020.25;5031172;28;8832;-58
2023/07/06 08:32:03;;;;;;;;;0.00;0.00;;;;;20.18;57.68;100019.81;5025594;28;8835;-60
2023/07/06 08:34:32;;;;;;;;;1.00;0.00;;;;;20.27;57.48;100018.75;5026838;28;8809;-61
2023/07/06 08:37:00;;;;;;;;;0.00;0.00;;;;;20.34;57.24;100025.06;5030451;28;8904;-58
2023/07/06 08:39:27;;;;;;;;;0.00;0.00;;;;;20.42;57.05;100030.44;5029154;28;8904;-60
2023/07/06 08:41:55;;;;;;;;;1.00;0.00;;;;;20.49;57.00;100028.66;5033257;28;8910;-60
2023/07/06 08:44:25;;;;;;;;;1.00;0.60;;;;;20.53;56.63;100035.41;5017803;28;8834;-59
2023/07/06 08:46:55;;;;;;;;;1.00;1.00;;;;;20.57;56.53;100028.63;5021099;28;8824;-60
2023/07/06 08:49:25;;;;;;;;;0.60;0.60;;;;;20.64;55.97;100032.25;5014701;28;8874;-58
2023/07/06 08:51:56;;;;;;;;;0.00;0.00;;;;;20.69;56.00;100037.97;5023078;28;8856;-58
2023/07/06 08:54:24;;;;;;;;;0.00;0.00;;;;;20.74;55.85;100033.66;5031190;28;8831;-61
2023/07/06 08:56:52;;;;;;;;;0.20;0.20;;;;;20.81;55.96;100040.03;5030487;28;8836;-59
2023/07/06 08:59:20;;;;;;;;;0.00;0.00;;;;;20.87;56.10;100035.78;5014277;28;8842;-60
2023/07/06 09:01:48;;;;;;;;;1.00;1.00;;;;;20.89;55.83;100036.44;5014567;28;8846;-59
2023/07/06 09:04:18;;;;;;;;;1.00;1.00;;;;;20.95;55.18;100041.13;5028043;28;8836;-57
2023/07/06 09:06:47;;;;;;;;;1.20;0.20;;;;;20.94;55.34;100045.69;5029888;28;8850;-59
2023/07/06 09:09:15;;;;;;;;;0.80;0.80;;;;;20.93;55.44;100041.28;5014996;28;8833;-60
2023/07/06 09:11:44;;;;;;;;;0.60;0.60;;;;;20.95;55.12;100043.84;5014333;28;8838;-59
2023/07/06 09:14:13;;;;;;;;;1.20;1.00;;;;;21.02;54.81;100050.19;5013420;28;8849;-57
2023/07/06 09:16:42;;;;;;;;;0.00;0.00;;;;;21.10;54.84;100041.97;5015137;28;8867;-58
2023/07/06 09:19:09;;;;;;;;;0.20;0.20;;;;;21.20;54.26;100040.63;5032181;28;8887;-59
2023/07/06 09:21:38;;;;;;;;;0.20;0.20;;;;;21.35;54.07;100037.94;5034461;28;8856;-60
2023/07/06 09:24:07;;;;;;;;;0.00;0.00;;;;;21.48;54.32;100038.13;5033834;28;8840;-58
2023/07/06 09:26:34;;;;;;;;;0.00;0.00;;;;;21.64;53.84;100037.91;5034555;28;9528;-59
2023/07/06 09:29:02;;;;;;;;;0.00;0.00;;;;;21.82;53.47;100041.06;5034459;28;8843;-59
2023/07/06 09:31:30;;;;;;;;;1.00;0.20;;;;;21.97;53.08;100040.00;5034723;28;8863;-59
2023/07/06 09:33:58;;;;;;;;;1.00;1.00;;;;;22.07;53.21;100042.38;5034937;28;8869;-58
2023/07/06 09:36:28;;;;;;;;;1.80;1.00;;;;;21.97;52.97;100033.72;5034101;28;8824;-59
2023/07/06 09:38:56;;;;;;;;;0.40;0.40;;;;;21.99;53.21;100039.78;5034790;28;8839;-60
2023/07/06 09:41:25;;;;;;;;;1.00;1.00;;;;;22.00;52.74;100041.47;5034260;28;8867;-59
2023/07/06 09:43:53;;;;;;;;;1.00;1.00;;;;;21.86;53.37;100047.78;5034586;28;8831;-60
2023/07/06 09:46:21;;;;;;;;;0.60;0.60;;;;;21.70;53.95;100046.13;5034365;28;9503;-60
2023/07/06 09:48:49;;;;;;;;;1.80;1.00;;;;;21.70;53.91;100048.03;5034339;28;8895;-60
2023/07/06 09:51:17;;;;;;;;;0.20;0.20;;;;;21.83;53.61;100043.59;5019313;28;8824;-59
2023/07/06 09:53:45;;;;;;;;;1.20;1.20;;;;;22.02;52.96;100042.13;5013562;28;8850;-60
2023/07/06 09:56:13;;;;;;;;;1.00;1.00;;;;;22.11;52.30;100051.81;5013822;28;8846;-59
2023/07/06 09:58:41;;;;;;;;;1.20;1.00;;;;;22.20;52.47;100053.34;5029384;28;8831;-58
2023/07/06 10:01:11;;;;;;;;;1.00;1.00;;;;;22.45;51.82;100044.66;5032856;28;8918;-58
2023/07/06 10:03:39;;;;;;;;;2.00;1.00;;;;;22.73;51.24;100047.41;5031306;28;8867;-60
2023/07/06 10:06:07;;;;;;;;;0.80;0.80;;;;;22.94;50.46;100047.38;5031754;28;8822;-61
2023/07/06 10:08:35;;;;;;;;;1.00;1.00;;;;;23.08;50.83;100035.56;5033291;28;8839;-59
2023/07/06 10:11:03;;;;;;;;;1.00;1.00;;;;;23.31;50.45;100038.84;5033247;28;8824;-59
2023/07/06 10:13:32;;;;;;;;;1.40;1.40;;;;;23.67;49.13;100047.59;5029531;28;8828;-60
2023/07/06 10:16:01;;;;;;;;;1.00;1.00;;;;;24.05;48.76;100041.47;5032500;28;8863;-61
2023/07/06 10:18:29;;;;;;;;;1.20;1.20;;;;;24.41;47.91;100044.69;5030937;28;8874;-60
2023/07/06 10:20:57;;;;;;;;;0.00;0.00;;;;;24.73;47.82;100040.34;5013651;28;8879;-59
2023/07/06 10:23:32;;;;;;;;;2.20;2.00;;;;;25.04;46.62;100043.25;5014033;28;8854;-59
2023/07/06 10:26:00;;;;;;;;;1.00;1.00;;;;;25.29;47.05;100042.38;5012155;28;8957;-59
2023/07/06 10:28:30;;;;;;;;;1.00;1.00;;;;;25.57;46.44;100042.09;5013299;28;8856;-59
2023/07/06 10:30:58;;;;;;;;;1.00;1.00;;;;;25.89;46.06;100040.06;5026364;28;8856;-59
2023/07/06 10:33:27;;;;;;;;;2.00;1.00;;;;;26.18;45.90;100038.66;5032543;28;8878;-59
2023/07/06 10:35:55;;;;;;;;;2.00;1.00;;;;;26.43;45.39;100032.16;5032421;28;8820;-60
2023/07/06 10:38:24;;;;;;;;;1.60;0.00;;;;;26.95;44.58;100034.47;5032550;28;8824;-61
2023/07/06 10:40:52;;;;;;;;;1.00;1.00;;;;;27.21;44.28;100037.00;5018889;28;8861;-59
2023/07/06 10:43:21;;;;;;;;;2.00;2.00;;;;;27.42;43.78;100028.34;5014484;28;8842;-61
2023/07/06 10:45:50;;;;;;;;;1.00;1.00;;;;;27.79;43.66;100040.13;5013561;28;8952;-59
2023/07/06 10:48:21;;;;;;;;;1.00;1.00;;;;;27.43;44.50;100035.50;5013228;28;8959;-59
2023/07/06 10:50:49;;;;;;;;;1.60;1.00;;;;;27.35;44.25;100040.41;5024355;28;8840;-60
2023/07/06 10:53:17;;;;;;;;;3.00;2.00;;;;;27.67;44.07;100037.31;5032619;28;8946;-60
2023/07/06 10:55:45;;;;;;;;;1.00;1.00;;;;;28.19;43.68;100053.06;5021275;28;8850;-59
2023/07/06 10:58:14;;;;;;;;;2.20;2.00;;;;;28.63;42.64;100044.41;5012357;28;9524;-59
2023/07/06 11:00:42;;;;;;;;;1.60;1.60;;;;;28.78;42.51;100046.69;5022428;28;8924;-59
2023/07/06 11:03:10;;;;;;;;;1.60;1.60;;;;;28.48;43.17;100046.75;5032112;28;8835;-60
2023/07/06 11:05:38;;;;;;;;;0.00;0.00;;;;;27.92;43.95;100056.41;5033123;28;8836;-60
2023/07/06 11:08:10;;;;;;;;;1.00;1.00;;;;;27.40;44.78;100052.34;5032527;28;8840;-60
2023/07/06 11:10:39;;;;;;;;;2.00;2.00;;;;;26.94;45.73;100062.06;5021400;28;8818;-59
2023/07/06 11:13:12;;;;;;;;;1.00;1.00;;;;;26.55;46.37;100063.22;5012955;28;8956;-60
2023/07/06 11:15:41;;;;;;;;;1.00;1.00;;;;;26.73;45.90;100062.44;5013062;28;8842;-59
2023/07/06 11:18:09;;;;;;;;;2.00;1.20;;;;;27.06;45.17;100058.38;5012837;28;9512;-59
2023/07/06 11:20:37;;;;;;;;;1.80;1.80;;;;;27.36;44.59;100059.34;5027847;28;8830;-59
2023/07/06 11:23:05;;;;;;;;;1.60;1.40;;;;;27.14;45.61;100058.09;5032138;28;8922;-59
2023/07/06 11:25:33;;;;;;;;;1.00;1.00;;;;;26.59;45.91;100059.00;5031098;28;8824;-59
2023/07/06 11:28:01;;;;;;;;;1.00;1.00;;;;;26.28;46.73;100056.22;5032067;28;8875;-59
2023/07/06 11:30:29;;;;;;;;;1.60;1.60;;;;;26.88;45.53;100052.03;5031655;28;8848;-59
2023/07/06 11:32:59;;;;;;;;;2.20;2.20;;;;;27.52;44.35;100050.53;5030811;28;8835;-59
2023/07/06 11:35:28;;;;;;;;;2.00;2.00;;;;;28.17;43.04;100051.63;5031268;28;8859;-59
2023/07/06 11:37:56;;;;;;;;;1.60;1.20;;;;;28.75;42.03;100052.66;5031329;28;8908;-59
2023/07/06 11:40:26;;;;;;;;;2.00;2.00;;;;;28.92;41.81;100059.94;5031721;28;8835;-60
2023/07/06 11:42:54;;;;;;;;;2.00;2.00;;;;;28.87;41.96;100051.59;5031285;28;8924;-59
2023/07/06 11:45:22;;;;;;;;;2.40;2.20;;;;;29.02;41.14;100053.88;5031393;28;8840;-61